sensor_id;sensor_type;location;lat;lon;timestamp;temperature;humidity
71801;HTU21D;59647;55.838;37.292;2023-12-14T00:00:57;-7.23;64.34
71801;HTU21D;59647;55.838;37.292;2023-12-14T00:03:23;-7.20;64.03
71801;HTU21D;59647;55.838;37.292;2023-12-14T00:05:52;-7.24;62.59
71801;HTU21D;59647;55.838;37.292;2023-12-14T00:08:17;-7.25;62.77
71801;HTU21D;59647;55.838;37.292;2023-12-14T00:10:43;-7.21;63.36
71801;HTU21D;59647;55.838;37.292;2023-12-14T00:13:13;-7.20;63.28
71801;HTU21D;59647;55.838;37.292;2023-12-14T00:15:39;-7.24;62.60
71801;HTU21D;59647;55.838;37.292;2023-12-14T00:18:05;-7.23;63.28
71801;HTU21D;59647;55.838;37.292;2023-12-14T00:20:32;-7.22;62.60
71801;HTU21D;59647;55.838;37.292;2023-12-14T00:22:58;-7.15;63.40
71801;HTU21D;59647;55.838;37.292;2023-12-14T00:25:23;-7.17;63.27
71801;HTU21D;59647;55.838;37.292;2023-12-14T00:27:52;-7.16;63.34
71801;HTU21D;59647;55.838;37.292;2023-12-14T00:30:18;-7.12;62.88
71801;HTU21D;59647;55.838;37.292;2023-12-14T00:32:44;-7.04;63.92
71801;HTU21D;59647;55.838;37.292;2023-12-14T00:35:13;-6.96;63.45
71801;HTU21D;59647;55.838;37.292;2023-12-14T00:37:38;-6.96;62.92
71801;HTU21D;59647;55.838;37.292;2023-12-14T00:40:08;-7.02;62.65
71801;HTU21D;59647;55.838;37.292;2023-12-14T00:42:34;-7.08;63.05
71801;HTU21D;59647;55.838;37.292;2023-12-14T00:45:00;-7.08;64.13
71801;HTU21D;59647;55.838;37.292;2023-12-14T00:47:26;-7.04;63.69
71801;HTU21D;59647;55.838;37.292;2023-12-14T00:49:52;-7.15;63.21
71801;HTU21D;59647;55.838;37.292;2023-12-14T00:52:18;-7.06;63.96
71801;HTU21D;59647;55.838;37.292;2023-12-14T00:54:44;-7.06;63.66
71801;HTU21D;59647;55.838;37.292;2023-12-14T00:57:17;-7.03;64.27
71801;HTU21D;59647;55.838;37.292;2023-12-14T00:59:49;-7.02;64.27
71801;HTU21D;59647;55.838;37.292;2023-12-14T01:02:15;-7.03;63.74
71801;HTU21D;59647;55.838;37.292;2023-12-14T01:04:41;-7.01;63.41
71801;HTU21D;59647;55.838;37.292;2023-12-14T01:07:08;-7.04;63.30
71801;HTU21D;59647;55.838;37.292;2023-12-14T01:09:34;-7.05;63.63
71801;HTU21D;59647;55.838;37.292;2023-12-14T01:12:03;-7.06;63.72
71801;HTU21D;59647;55.838;37.292;2023-12-14T01:14:29;-7.01;64.19
71801;HTU21D;59647;55.838;37.292;2023-12-14T01:16:59;-6.98;63.24
71801;HTU21D;59647;55.838;37.292;2023-12-14T01:19:32;-7.03;63.27
71801;HTU21D;59647;55.838;37.292;2023-12-14T01:22:00;-7.00;63.64
71801;HTU21D;59647;55.838;37.292;2023-12-14T01:24:31;-6.95;63.51
71801;HTU21D;59647;55.838;37.292;2023-12-14T01:26:57;-6.92;63.56
71801;HTU21D;59647;55.838;37.292;2023-12-14T01:29:23;-6.92;63.37
71801;HTU21D;59647;55.838;37.292;2023-12-14T01:31:49;-7.02;62.31
71801;HTU21D;59647;55.838;37.292;2023-12-14T01:34:18;-6.95;63.72
71801;HTU21D;59647;55.838;37.292;2023-12-14T01:36:44;-6.95;63.25
71801;HTU21D;59647;55.838;37.292;2023-12-14T01:39:09;-6.96;62.85
71801;HTU21D;59647;55.838;37.292;2023-12-14T01:41:35;-6.96;62.79
71801;HTU21D;59647;55.838;37.292;2023-12-14T01:44:01;-7.01;63.03
71801;HTU21D;59647;55.838;37.292;2023-12-14T01:46:29;-7.05;63.13
71801;HTU21D;59647;55.838;37.292;2023-12-14T01:48:55;-7.04;63.53
71801;HTU21D;59647;55.838;37.292;2023-12-14T01:51:21;-6.96;64.04
71801;HTU21D;59647;55.838;37.292;2023-12-14T01:53:47;-6.96;63.60
71801;HTU21D;59647;55.838;37.292;2023-12-14T01:56:13;-7.07;63.29
71801;HTU21D;59647;55.838;37.292;2023-12-14T01:58:38;-7.07;64.08
71801;HTU21D;59647;55.838;37.292;2023-12-14T02:01:19;-7.01;64.59
71801;HTU21D;59647;55.838;37.292;2023-12-14T02:03:50;-6.97;64.40
71801;HTU21D;59647;55.838;37.292;2023-12-14T02:06:23;-6.94;64.33
71801;HTU21D;59647;55.838;37.292;2023-12-14T02:08:49;-6.95;63.88
71801;HTU21D;59647;55.838;37.292;2023-12-14T02:11:17;-6.97;64.01
71801;HTU21D;59647;55.838;37.292;2023-12-14T02:13:43;-6.96;64.36
71801;HTU21D;59647;55.838;37.292;2023-12-14T02:16:09;-6.90;64.34
71801;HTU21D;59647;55.838;37.292;2023-12-14T02:18:37;-6.89;64.24
71801;HTU21D;59647;55.838;37.292;2023-12-14T02:21:23;-6.85;64.11
71801;HTU21D;59647;55.838;37.292;2023-12-14T02:23:48;-6.88;63.89
71801;HTU21D;59647;55.838;37.292;2023-12-14T02:26:15;-6.88;64.01
71801;HTU21D;59647;55.838;37.292;2023-12-14T02:28:44;-6.89;63.59
71801;HTU21D;59647;55.838;37.292;2023-12-14T02:31:10;-6.89;63.83
71801;HTU21D;59647;55.838;37.292;2023-12-14T02:33:39;-6.86;64.08
71801;HTU21D;59647;55.838;37.292;2023-12-14T02:36:08;-6.90;63.42
71801;HTU21D;59647;55.838;37.292;2023-12-14T02:38:34;-6.94;63.83
71801;HTU21D;59647;55.838;37.292;2023-12-14T02:41:03;-6.95;63.94
71801;HTU21D;59647;55.838;37.292;2023-12-14T02:43:32;-6.92;64.38
71801;HTU21D;59647;55.838;37.292;2023-12-14T02:45:59;-6.89;64.40
71801;HTU21D;59647;55.838;37.292;2023-12-14T02:48:29;-6.89;64.14
71801;HTU21D;59647;55.838;37.292;2023-12-14T02:50:55;-6.94;64.18
71801;HTU21D;59647;55.838;37.292;2023-12-14T02:53:28;-6.98;64.08
71801;HTU21D;59647;55.838;37.292;2023-12-14T02:55:54;-7.02;64.58
71801;HTU21D;59647;55.838;37.292;2023-12-14T02:58:20;-6.97;64.78
71801;HTU21D;59647;55.838;37.292;2023-12-14T03:00:53;-6.92;65.01
71801;HTU21D;59647;55.838;37.292;2023-12-14T03:03:19;-6.89;64.95
71801;HTU21D;59647;55.838;37.292;2023-12-14T03:05:46;-6.91;64.88
71801;HTU21D;59647;55.838;37.292;2023-12-14T03:08:25;-6.91;64.57
71801;HTU21D;59647;55.838;37.292;2023-12-14T03:10:51;-6.95;64.57
71801;HTU21D;59647;55.838;37.292;2023-12-14T03:13:17;-6.94;64.88
71801;HTU21D;59647;55.838;37.292;2023-12-14T03:15:49;-6.87;65.27
71801;HTU21D;59647;55.838;37.292;2023-12-14T03:18:15;-6.92;64.72
71801;HTU21D;59647;55.838;37.292;2023-12-14T03:20:41;-6.93;64.40
71801;HTU21D;59647;55.838;37.292;2023-12-14T03:23:07;-6.90;64.94
71801;HTU21D;59647;55.838;37.292;2023-12-14T03:25:33;-6.85;64.92
71801;HTU21D;59647;55.838;37.292;2023-12-14T03:27:58;-6.89;64.41
71801;HTU21D;59647;55.838;37.292;2023-12-14T03:30:24;-6.92;64.54
71801;HTU21D;59647;55.838;37.292;2023-12-14T03:32:52;-6.96;64.56
71801;HTU21D;59647;55.838;37.292;2023-12-14T03:35:18;-7.03;65.04
71801;HTU21D;59647;55.838;37.292;2023-12-14T03:37:44;-7.05;65.40
71801;HTU21D;59647;55.838;37.292;2023-12-14T03:40:10;-7.05;65.54
71801;HTU21D;59647;55.838;37.292;2023-12-14T03:42:38;-6.95;65.95
71801;HTU21D;59647;55.838;37.292;2023-12-14T03:45:05;-6.96;65.76
71801;HTU21D;59647;55.838;37.292;2023-12-14T03:47:33;-7.07;65.08
71801;HTU21D;59647;55.838;37.292;2023-12-14T03:49:59;-7.13;65.31
71801;HTU21D;59647;55.838;37.292;2023-12-14T03:52:25;-7.23;65.01
71801;HTU21D;59647;55.838;37.292;2023-12-14T03:54:53;-7.25;65.15
71801;HTU21D;59647;55.838;37.292;2023-12-14T03:57:19;-7.26;65.42
71801;HTU21D;59647;55.838;37.292;2023-12-14T03:59:45;-7.30;65.24
71801;HTU21D;59647;55.838;37.292;2023-12-14T04:02:11;-7.36;64.54
71801;HTU21D;59647;55.838;37.292;2023-12-14T04:04:39;-7.32;65.26
71801;HTU21D;59647;55.838;37.292;2023-12-14T04:07:05;-7.26;65.27
71801;HTU21D;59647;55.838;37.292;2023-12-14T04:09:32;-7.12;65.85
71801;HTU21D;59647;55.838;37.292;2023-12-14T04:11:58;-7.18;64.94
71801;HTU21D;59647;55.838;37.292;2023-12-14T04:14:24;-7.27;64.39
71801;HTU21D;59647;55.838;37.292;2023-12-14T04:16:50;-7.26;64.43
71801;HTU21D;59647;55.838;37.292;2023-12-14T04:19:16;-7.26;64.90
71801;HTU21D;59647;55.838;37.292;2023-12-14T04:21:42;-7.29;64.66
71801;HTU21D;59647;55.838;37.292;2023-12-14T04:24:08;-7.29;64.98
71801;HTU21D;59647;55.838;37.292;2023-12-14T04:26:34;-7.35;64.88
71801;HTU21D;59647;55.838;37.292;2023-12-14T04:29:00;-7.39;65.21
71801;HTU21D;59647;55.838;37.292;2023-12-14T04:31:28;-7.37;65.66
71801;HTU21D;59647;55.838;37.292;2023-12-14T04:33:54;-7.32;65.62
71801;HTU21D;59647;55.838;37.292;2023-12-14T04:36:20;-7.34;65.79
71801;HTU21D;59647;55.838;37.292;2023-12-14T04:38:46;-7.34;65.91
71801;HTU21D;59647;55.838;37.292;2023-12-14T04:41:13;-7.38;66.23
71801;HTU21D;59647;55.838;37.292;2023-12-14T04:43:39;-7.37;66.53
71801;HTU21D;59647;55.838;37.292;2023-12-14T04:46:05;-7.42;66.97
71801;HTU21D;59647;55.838;37.292;2023-12-14T04:48:35;-7.47;67.06
71801;HTU21D;59647;55.838;37.292;2023-12-14T04:51:01;-7.39;66.95
71801;HTU21D;59647;55.838;37.292;2023-12-14T04:53:27;-7.42;66.71
71801;HTU21D;59647;55.838;37.292;2023-12-14T04:55:53;-7.44;66.97
71801;HTU21D;59647;55.838;37.292;2023-12-14T04:58:19;-7.40;67.14
71801;HTU21D;59647;55.838;37.292;2023-12-14T05:00:45;-7.39;67.13
71801;HTU21D;59647;55.838;37.292;2023-12-14T05:03:11;-7.35;66.99
71801;HTU21D;59647;55.838;37.292;2023-12-14T05:05:40;-7.33;66.66
71801;HTU21D;59647;55.838;37.292;2023-12-14T05:08:06;-7.35;66.59
71801;HTU21D;59647;55.838;37.292;2023-12-14T05:10:32;-7.31;66.85
71801;HTU21D;59647;55.838;37.292;2023-12-14T05:12:57;-7.27;66.89
71801;HTU21D;59647;55.838;37.292;2023-12-14T05:15:23;-7.33;66.50
71801;HTU21D;59647;55.838;37.292;2023-12-14T05:17:49;-7.30;66.39
71801;HTU21D;59647;55.838;37.292;2023-12-14T05:20:15;-7.23;66.68
71801;HTU21D;59647;55.838;37.292;2023-12-14T05:22:41;-7.20;66.56
71801;HTU21D;59647;55.838;37.292;2023-12-14T05:25:13;-7.11;66.40
71801;HTU21D;59647;55.838;37.292;2023-12-14T05:27:46;-7.16;65.46
71801;HTU21D;59647;55.838;37.292;2023-12-14T05:30:15;-7.20;66.12
71801;HTU21D;59647;55.838;37.292;2023-12-14T05:32:40;-7.16;66.22
71801;HTU21D;59647;55.838;37.292;2023-12-14T05:35:12;-7.18;66.07
71801;HTU21D;59647;55.838;37.292;2023-12-14T05:37:42;-7.16;65.98
71801;HTU21D;59647;55.838;37.292;2023-12-14T05:40:11;-7.18;65.98
71801;HTU21D;59647;55.838;37.292;2023-12-14T05:42:40;-7.24;65.69
71801;HTU21D;59647;55.838;37.292;2023-12-14T05:45:07;-7.19;66.11
71801;HTU21D;59647;55.838;37.292;2023-12-14T05:47:33;-7.18;65.75
71801;HTU21D;59647;55.838;37.292;2023-12-14T05:50:04;-7.17;65.87
71801;HTU21D;59647;55.838;37.292;2023-12-14T05:52:30;-7.19;65.93
71801;HTU21D;59647;55.838;37.292;2023-12-14T05:54:56;-7.19;65.66
71801;HTU21D;59647;55.838;37.292;2023-12-14T05:57:25;-7.19;65.62
71801;HTU21D;59647;55.838;37.292;2023-12-14T05:59:51;-7.27;65.66
71801;HTU21D;59647;55.838;37.292;2023-12-14T06:02:19;-7.33;65.98
71801;HTU21D;59647;55.838;37.292;2023-12-14T06:04:45;-7.34;65.97
71801;HTU21D;59647;55.838;37.292;2023-12-14T06:07:14;-7.23;66.26
71801;HTU21D;59647;55.838;37.292;2023-12-14T06:09:41;-7.31;65.85
71801;HTU21D;59647;55.838;37.292;2023-12-14T06:12:07;-7.27;66.06
71801;HTU21D;59647;55.838;37.292;2023-12-14T06:14:33;-7.25;65.84
71801;HTU21D;59647;55.838;37.292;2023-12-14T06:16:59;-7.31;66.09
71801;HTU21D;59647;55.838;37.292;2023-12-14T06:19:25;-7.24;66.02
71801;HTU21D;59647;55.838;37.292;2023-12-14T06:21:51;-7.20;66.40
71801;HTU21D;59647;55.838;37.292;2023-12-14T06:24:17;-7.17;66.16
71801;HTU21D;59647;55.838;37.292;2023-12-14T06:26:46;-7.11;66.13
71801;HTU21D;59647;55.838;37.292;2023-12-14T06:29:12;-7.11;65.66
71801;HTU21D;59647;55.838;37.292;2023-12-14T06:31:41;-7.15;65.35
71801;HTU21D;59647;55.838;37.292;2023-12-14T06:34:07;-7.13;65.57
71801;HTU21D;59647;55.838;37.292;2023-12-14T06:36:33;-7.11;65.53
71801;HTU21D;59647;55.838;37.292;2023-12-14T06:39:00;-7.05;65.51
71801;HTU21D;59647;55.838;37.292;2023-12-14T06:41:28;-6.97;65.62
71801;HTU21D;59647;55.838;37.292;2023-12-14T06:43:57;-7.02;64.84
71801;HTU21D;59647;55.838;37.292;2023-12-14T06:46:25;-7.03;64.96
71801;HTU21D;59647;55.838;37.292;2023-12-14T06:48:51;-7.00;64.91
71801;HTU21D;59647;55.838;37.292;2023-12-14T06:51:17;-7.02;64.63
71801;HTU21D;59647;55.838;37.292;2023-12-14T06:53:47;-7.08;65.10
71801;HTU21D;59647;55.838;37.292;2023-12-14T06:56:16;-7.02;65.30
71801;HTU21D;59647;55.838;37.292;2023-12-14T06:58:43;-6.92;65.83
71801;HTU21D;59647;55.838;37.292;2023-12-14T07:01:17;-6.85;64.90
71801;HTU21D;59647;55.838;37.292;2023-12-14T07:03:46;-6.85;64.54
71801;HTU21D;59647;55.838;37.292;2023-12-14T07:06:13;-6.83;65.08
71801;HTU21D;59647;55.838;37.292;2023-12-14T07:08:40;-6.82;64.53
71801;HTU21D;59647;55.838;37.292;2023-12-14T07:11:07;-6.86;64.62
71801;HTU21D;59647;55.838;37.292;2023-12-14T07:13:40;-6.92;64.79
71801;HTU21D;59647;55.838;37.292;2023-12-14T07:16:07;-7.04;64.86
71801;HTU21D;59647;55.838;37.292;2023-12-14T07:18:37;-7.00;65.60
71801;HTU21D;59647;55.838;37.292;2023-12-14T07:21:07;-6.97;65.63
71801;HTU21D;59647;55.838;37.292;2023-12-14T07:23:34;-6.94;65.41
71801;HTU21D;59647;55.838;37.292;2023-12-14T07:26:01;-6.95;65.20
71801;HTU21D;59647;55.838;37.292;2023-12-14T07:28:27;-6.92;65.18
71801;HTU21D;59647;55.838;37.292;2023-12-14T07:30:59;-6.91;65.36
71801;HTU21D;59647;55.838;37.292;2023-12-14T07:33:25;-6.89;65.18
71801;HTU21D;59647;55.838;37.292;2023-12-14T07:35:51;-6.88;65.52
71801;HTU21D;59647;55.838;37.292;2023-12-14T07:38:17;-6.87;65.60
71801;HTU21D;59647;55.838;37.292;2023-12-14T07:40:47;-6.88;65.66
71801;HTU21D;59647;55.838;37.292;2023-12-14T07:43:13;-6.77;65.75
71801;HTU21D;59647;55.838;37.292;2023-12-14T07:45:41;-6.73;65.22
71801;HTU21D;59647;55.838;37.292;2023-12-14T07:48:07;-6.79;64.47
71801;HTU21D;59647;55.838;37.292;2023-12-14T07:50:33;-6.80;64.91
71801;HTU21D;59647;55.838;37.292;2023-12-14T07:52:59;-6.82;65.14
71801;HTU21D;59647;55.838;37.292;2023-12-14T07:55:26;-6.83;65.45
71801;HTU21D;59647;55.838;37.292;2023-12-14T07:57:52;-6.93;65.24
71801;HTU21D;59647;55.838;37.292;2023-12-14T08:00:21;-6.89;66.12
71801;HTU21D;59647;55.838;37.292;2023-12-14T08:02:51;-6.87;66.20
71801;HTU21D;59647;55.838;37.292;2023-12-14T08:05:17;-6.79;66.43
71801;HTU21D;59647;55.838;37.292;2023-12-14T08:07:43;-6.85;65.72
71801;HTU21D;59647;55.838;37.292;2023-12-14T08:10:10;-6.91;65.82
71801;HTU21D;59647;55.838;37.292;2023-12-14T08:12:38;-6.86;66.11
71801;HTU21D;59647;55.838;37.292;2023-12-14T08:15:08;-6.79;66.14
71801;HTU21D;59647;55.838;37.292;2023-12-14T08:17:37;-6.75;66.12
71801;HTU21D;59647;55.838;37.292;2023-12-14T08:20:06;-6.75;66.25
71801;HTU21D;59647;55.838;37.292;2023-12-14T08:22:38;-6.78;65.99
71801;HTU21D;59647;55.838;37.292;2023-12-14T08:25:13;-6.75;66.32
71801;HTU21D;59647;55.838;37.292;2023-12-14T08:27:47;-6.71;66.01
71801;HTU21D;59647;55.838;37.292;2023-12-14T08:30:13;-6.72;66.25
71801;HTU21D;59647;55.838;37.292;2023-12-14T08:32:42;-6.66;66.17
71801;HTU21D;59647;55.838;37.292;2023-12-14T08:35:08;-6.67;65.92
71801;HTU21D;59647;55.838;37.292;2023-12-14T08:37:37;-6.71;65.53
71801;HTU21D;59647;55.838;37.292;2023-12-14T08:40:05;-6.74;65.53
71801;HTU21D;59647;55.838;37.292;2023-12-14T08:42:31;-6.73;65.86
71801;HTU21D;59647;55.838;37.292;2023-12-14T08:44:57;-6.74;66.11
71801;HTU21D;59647;55.838;37.292;2023-12-14T08:47:24;-6.74;66.28
71801;HTU21D;59647;55.838;37.292;2023-12-14T08:49:51;-6.74;65.62
71801;HTU21D;59647;55.838;37.292;2023-12-14T08:52:18;-6.76;66.49
71801;HTU21D;59647;55.838;37.292;2023-12-14T08:54:44;-6.68;66.33
71801;HTU21D;59647;55.838;37.292;2023-12-14T08:57:10;-6.68;66.59
71801;HTU21D;59647;55.838;37.292;2023-12-14T08:59:36;-6.63;66.69
71801;HTU21D;59647;55.838;37.292;2023-12-14T09:02:08;-6.66;66.18
71801;HTU21D;59647;55.838;37.292;2023-12-14T09:04:37;-6.64;66.57
71801;HTU21D;59647;55.838;37.292;2023-12-14T09:07:03;-6.59;66.56
71801;HTU21D;59647;55.838;37.292;2023-12-14T09:09:29;-6.59;66.11
71801;HTU21D;59647;55.838;37.292;2023-12-14T09:11:59;-6.60;66.36
71801;HTU21D;59647;55.838;37.292;2023-12-14T09:14:25;-6.53;66.65
71801;HTU21D;59647;55.838;37.292;2023-12-14T09:16:54;-6.45;66.80
71801;HTU21D;59647;55.838;37.292;2023-12-14T09:19:20;-6.41;66.29
71801;HTU21D;59647;55.838;37.292;2023-12-14T09:21:46;-6.38;65.85
71801;HTU21D;59647;55.838;37.292;2023-12-14T09:24:12;-6.48;64.80
71801;HTU21D;59647;55.838;37.292;2023-12-14T09:26:38;-6.61;65.39
71801;HTU21D;59647;55.838;37.292;2023-12-14T09:29:04;-6.56;66.02
71801;HTU21D;59647;55.838;37.292;2023-12-14T09:31:30;-6.59;65.55
71801;HTU21D;59647;55.838;37.292;2023-12-14T09:33:56;-6.60;65.64
71801;HTU21D;59647;55.838;37.292;2023-12-14T09:36:32;-6.67;65.21
71801;HTU21D;59647;55.838;37.292;2023-12-14T09:38:58;-6.68;65.42
71801;HTU21D;59647;55.838;37.292;2023-12-14T09:41:26;-6.77;65.56
71801;HTU21D;59647;55.838;37.292;2023-12-14T09:43:53;-6.88;66.30
71801;HTU21D;59647;55.838;37.292;2023-12-14T09:46:21;-6.91;66.68
71801;HTU21D;59647;55.838;37.292;2023-12-14T09:48:49;-6.92;66.65
71801;HTU21D;59647;55.838;37.292;2023-12-14T09:51:22;-6.92;67.68
71801;HTU21D;59647;55.838;37.292;2023-12-14T09:53:53;-6.89;67.15
71801;HTU21D;59647;55.838;37.292;2023-12-14T09:56:25;-6.88;67.38
71801;HTU21D;59647;55.838;37.292;2023-12-14T09:58:53;-6.86;66.83
71801;HTU21D;59647;55.838;37.292;2023-12-14T10:01:23;-6.86;66.41
71801;HTU21D;59647;55.838;37.292;2023-12-14T10:04:09;-6.88;66.33
71801;HTU21D;59647;55.838;37.292;2023-12-14T10:06:39;-6.90;66.27
71801;HTU21D;59647;55.838;37.292;2023-12-14T10:09:06;-6.92;66.40
71801;HTU21D;59647;55.838;37.292;2023-12-14T10:11:44;-6.94;67.08
71801;HTU21D;59647;55.838;37.292;2023-12-14T10:14:23;-6.85;66.95
71801;HTU21D;59647;55.838;37.292;2023-12-14T10:16:53;-6.85;66.56
71801;HTU21D;59647;55.838;37.292;2023-12-14T10:19:19;-6.81;66.53
71801;HTU21D;59647;55.838;37.292;2023-12-14T10:21:48;-6.80;66.56
71801;HTU21D;59647;55.838;37.292;2023-12-14T10:24:15;-6.78;66.43
71801;HTU21D;59647;55.838;37.292;2023-12-14T10:26:44;-6.74;66.54
71801;HTU21D;59647;55.838;37.292;2023-12-14T10:29:17;-6.63;66.30
71801;HTU21D;59647;55.838;37.292;2023-12-14T10:31:43;-6.66;65.70
71801;HTU21D;59647;55.838;37.292;2023-12-14T10:34:09;-6.68;65.78
71801;HTU21D;59647;55.838;37.292;2023-12-14T10:36:38;-6.65;65.78
71801;HTU21D;59647;55.838;37.292;2023-12-14T10:39:04;-6.68;65.68
71801;HTU21D;59647;55.838;37.292;2023-12-14T10:41:38;-6.65;65.62
71801;HTU21D;59647;55.838;37.292;2023-12-14T10:44:05;-6.63;65.72
71801;HTU21D;59647;55.838;37.292;2023-12-14T10:46:32;-6.57;65.43
71801;HTU21D;59647;55.838;37.292;2023-12-14T10:49:01;-6.56;64.95
71801;HTU21D;59647;55.838;37.292;2023-12-14T10:51:32;-6.57;63.86
71801;HTU21D;59647;55.838;37.292;2023-12-14T10:53:58;-6.53;65.01
71801;HTU21D;59647;55.838;37.292;2023-12-14T10:56:25;-6.46;64.98
71801;HTU21D;59647;55.838;37.292;2023-12-14T10:58:59;-6.46;64.66
71801;HTU21D;59647;55.838;37.292;2023-12-14T11:01:35;-6.43;64.34
71801;HTU21D;59647;55.838;37.292;2023-12-14T11:04:10;-6.46;64.15
71801;HTU21D;59647;55.838;37.292;2023-12-14T11:06:40;-6.48;63.90
71801;HTU21D;59647;55.838;37.292;2023-12-14T11:09:10;-6.50;63.78
71801;HTU21D;59647;55.838;37.292;2023-12-14T11:11:57;-6.51;63.79
71801;HTU21D;59647;55.838;37.292;2023-12-14T11:14:27;-6.46;64.54
71801;HTU21D;59647;55.838;37.292;2023-12-14T11:16:58;-6.51;63.85
71801;HTU21D;59647;55.838;37.292;2023-12-14T11:19:30;-6.49;64.18
71801;HTU21D;59647;55.838;37.292;2023-12-14T11:24:41;-6.51;63.92
71801;HTU21D;59647;55.838;37.292;2023-12-14T11:27:14;-6.50;64.21
71801;HTU21D;59647;55.838;37.292;2023-12-14T11:29:40;-6.59;63.34
71801;HTU21D;59647;55.838;37.292;2023-12-14T11:32:10;-6.67;63.72
71801;HTU21D;59647;55.838;37.292;2023-12-14T11:34:39;-6.68;64.22
71801;HTU21D;59647;55.838;37.292;2023-12-14T11:37:05;-6.70;64.24
71801;HTU21D;59647;55.838;37.292;2023-12-14T11:39:31;-6.70;64.47
71801;HTU21D;59647;55.838;37.292;2023-12-14T11:42:00;-6.70;64.47
71801;HTU21D;59647;55.838;37.292;2023-12-14T11:44:27;-6.72;64.56
71801;HTU21D;59647;55.838;37.292;2023-12-14T11:46:56;-6.73;64.37
71801;HTU21D;59647;55.838;37.292;2023-12-14T11:49:29;-6.75;65.27
71801;HTU21D;59647;55.838;37.292;2023-12-14T11:51:56;-6.71;65.03
71801;HTU21D;59647;55.838;37.292;2023-12-14T11:54:25;-6.68;65.20
71801;HTU21D;59647;55.838;37.292;2023-12-14T11:56:52;-6.59;65.41
71801;HTU21D;59647;55.838;37.292;2023-12-14T11:59:21;-6.56;64.96
71801;HTU21D;59647;55.838;37.292;2023-12-14T12:01:57;-6.52;64.80
71801;HTU21D;59647;55.838;37.292;2023-12-14T12:04:27;-6.61;64.42
71801;HTU21D;59647;55.838;37.292;2023-12-14T12:07:05;-6.63;65.01
71801;HTU21D;59647;55.838;37.292;2023-12-14T12:09:47;-6.65;64.91
71801;HTU21D;59647;55.838;37.292;2023-12-14T12:12:14;-6.66;64.56
71801;HTU21D;59647;55.838;37.292;2023-12-14T12:14:41;-6.66;64.98
71801;HTU21D;59647;55.838;37.292;2023-12-14T12:17:10;-6.68;65.76
71801;HTU21D;59647;55.838;37.292;2023-12-14T12:19:37;-6.66;65.17
71801;HTU21D;59647;55.838;37.292;2023-12-14T12:22:03;-6.80;64.86
71801;HTU21D;59647;55.838;37.292;2023-12-14T12:24:30;-6.79;65.51
71801;HTU21D;59647;55.838;37.292;2023-12-14T12:26:56;-6.76;66.10
71801;HTU21D;59647;55.838;37.292;2023-12-14T12:29:40;-6.70;65.77
71801;HTU21D;59647;55.838;37.292;2023-12-14T12:32:06;-6.61;66.11
71801;HTU21D;59647;55.838;37.292;2023-12-14T12:34:39;-6.60;65.62
71801;HTU21D;59647;55.838;37.292;2023-12-14T12:37:04;-6.70;65.17
71801;HTU21D;59647;55.838;37.292;2023-12-14T12:39:31;-6.63;66.06
71801;HTU21D;59647;55.838;37.292;2023-12-14T12:41:56;-6.55;66.17
71801;HTU21D;59647;55.838;37.292;2023-12-14T12:44:22;-6.49;65.91
71801;HTU21D;59647;55.838;37.292;2023-12-14T12:46:54;-6.49;65.46
71801;HTU21D;59647;55.838;37.292;2023-12-14T12:49:30;-6.48;65.69
71801;HTU21D;59647;55.838;37.292;2023-12-14T12:51:56;-6.55;64.64
71801;HTU21D;59647;55.838;37.292;2023-12-14T12:54:25;-6.63;64.76
71801;HTU21D;59647;55.838;37.292;2023-12-14T12:56:51;-6.71;64.97
71801;HTU21D;59647;55.838;37.292;2023-12-14T12:59:17;-6.66;65.60
71801;HTU21D;59647;55.838;37.292;2023-12-14T13:01:46;-6.66;65.38
71801;HTU21D;59647;55.838;37.292;2023-12-14T13:04:22;-6.70;65.30
71801;HTU21D;59647;55.838;37.292;2023-12-14T13:06:50;-6.81;65.21
71801;HTU21D;59647;55.838;37.292;2023-12-14T13:09:16;-6.83;65.64
71801;HTU21D;59647;55.838;37.292;2023-12-14T13:11:43;-6.78;65.81
71801;HTU21D;59647;55.838;37.292;2023-12-14T13:14:09;-6.82;65.63
71801;HTU21D;59647;55.838;37.292;2023-12-14T13:16:36;-6.77;66.45
71801;HTU21D;59647;55.838;37.292;2023-12-14T13:19:05;-6.70;66.04
71801;HTU21D;59647;55.838;37.292;2023-12-14T13:21:33;-6.63;66.07
71801;HTU21D;59647;55.838;37.292;2023-12-14T13:24:02;-6.55;66.00
71801;HTU21D;59647;55.838;37.292;2023-12-14T13:26:29;-6.56;65.59
71801;HTU21D;59647;55.838;37.292;2023-12-14T13:28:57;-6.59;64.98
71801;HTU21D;59647;55.838;37.292;2023-12-14T13:31:26;-6.62;65.05
71801;HTU21D;59647;55.838;37.292;2023-12-14T13:33:52;-6.57;65.46
71801;HTU21D;59647;55.838;37.292;2023-12-14T13:36:20;-6.58;64.95
71801;HTU21D;59647;55.838;37.292;2023-12-14T13:38:46;-6.59;65.29
71801;HTU21D;59647;55.838;37.292;2023-12-14T13:41:13;-6.57;65.33
71801;HTU21D;59647;55.838;37.292;2023-12-14T13:43:45;-6.55;65.30
71801;HTU21D;59647;55.838;37.292;2023-12-14T13:46:13;-6.55;65.49
71801;HTU21D;59647;55.838;37.292;2023-12-14T13:48:40;-6.47;65.56
71801;HTU21D;59647;55.838;37.292;2023-12-14T13:51:06;-6.43;65.35
71801;HTU21D;59647;55.838;37.292;2023-12-14T13:53:36;-6.48;64.59
71801;HTU21D;59647;55.838;37.292;2023-12-14T13:56:02;-6.52;65.13
71801;HTU21D;59647;55.838;37.292;2023-12-14T13:58:31;-6.59;64.55
71801;HTU21D;59647;55.838;37.292;2023-12-14T14:01:00;-6.65;64.54
71801;HTU21D;59647;55.838;37.292;2023-12-14T14:03:26;-6.63;65.14
71801;HTU21D;59647;55.838;37.292;2023-12-14T14:05:56;-6.65;65.39
71801;HTU21D;59647;55.838;37.292;2023-12-14T14:08:35;-6.65;65.72
71801;HTU21D;59647;55.838;37.292;2023-12-14T14:11:02;-6.87;65.39
71801;HTU21D;59647;55.838;37.292;2023-12-14T14:13:29;-6.87;65.81
71801;HTU21D;59647;55.838;37.292;2023-12-14T14:15:55;-6.90;66.36
71801;HTU21D;59647;55.838;37.292;2023-12-14T14:18:21;-6.89;66.24
71801;HTU21D;59647;55.838;37.292;2023-12-14T14:20:47;-6.97;66.94
71801;HTU21D;59647;55.838;37.292;2023-12-14T14:23:13;-6.98;67.02
71801;HTU21D;59647;55.838;37.292;2023-12-14T14:25:43;-6.92;66.99
71801;HTU21D;59647;55.838;37.292;2023-12-14T14:28:11;-7.02;67.38
71801;HTU21D;59647;55.838;37.292;2023-12-14T14:30:37;-7.07;67.81
71801;HTU21D;59647;55.838;37.292;2023-12-14T14:33:03;-7.10;68.39
71801;HTU21D;59647;55.838;37.292;2023-12-14T14:35:32;-7.15;68.68
71801;HTU21D;59647;55.838;37.292;2023-12-14T14:38:02;-7.11;69.55
71801;HTU21D;59647;55.838;37.292;2023-12-14T14:40:28;-7.06;68.89
71801;HTU21D;59647;55.838;37.292;2023-12-14T14:42:57;-7.17;69.92
71801;HTU21D;59647;55.838;37.292;2023-12-14T14:45:27;-7.16;70.13
71801;HTU21D;59647;55.838;37.292;2023-12-14T14:47:53;-7.11;69.81
71801;HTU21D;59647;55.838;37.292;2023-12-14T14:50:22;-7.09;70.51
71801;HTU21D;59647;55.838;37.292;2023-12-14T14:52:48;-7.15;70.18
71801;HTU21D;59647;55.838;37.292;2023-12-14T14:55:14;-7.06;70.42
71801;HTU21D;59647;55.838;37.292;2023-12-14T14:57:40;-7.05;70.23
71801;HTU21D;59647;55.838;37.292;2023-12-14T15:00:07;-7.07;69.97
71801;HTU21D;59647;55.838;37.292;2023-12-14T15:02:33;-7.03;69.13
71801;HTU21D;59647;55.838;37.292;2023-12-14T15:05:00;-7.05;70.47
71801;HTU21D;59647;55.838;37.292;2023-12-14T15:07:28;-7.02;70.30
71801;HTU21D;59647;55.838;37.292;2023-12-14T15:09:56;-6.97;70.61